Search for airport 
image banner adimage banner adimage banner ad
image banner ad

KIDI - Indiana County/Jimmy Stewart Fld/

Located in Indiana, United States

ICAO - IDI, IATA - IDI

Data provided by Airmate  

General information

Coordinates: N40°37'52" W79°6'5"
Elevation is 1419 feet MSL.
Magnetic variation is -10° East
View others Airports in Pennsylvania

Operational data

Special qualification required
Current time UTC:
Current local time:
Weather
METAR: KIDI 091355Z AUTO 14004KT 3SM BR BKN026 BKN033 06/04 A3007 RMK A01
View NOTAMs / SUP AIP / TFR affecting this airport [VIEW]
Communications frequencies: [VIEW]

Runways:

RWY identifierQFULength (ft)Width (ft)SurfaceLDA (ft)
1196°5502100ASPH
29276°5502100ASPH

Airport contact information

Address: Indiana United States

Other aviation service providers

Flight schools

Lease Aviation

Lease Aviation

Satellite view of KIDI